Time;durP1;ratioP1;P1;durP2;ratioP2;P2;SDS_P1;SDS_P2;PMS_P1;PMS_P2;Temp;Humidity;BMP_temperature;BMP_pressure;BME280_temperature;BME280_humidity;BME280_pressure;Samples;Min_cycle;Max_cycle;Signal;HPM_P1;HPM_P2
2023/02/26 00:00:20;;;;;;;4.37;1.87;;;;;;;17.00;49.98;96197.06;5007676;28;20209;-92
2023/02/26 00:02:58;;;;;;;2.27;1.70;;;;;;;18.40;49.83;96431.88;4988185;28;20186;-88
2023/02/26 00:05:35;;;;;;;2.93;1.70;;;;;;;17.39;49.65;96267.50;5005763;28;20197;-91
2023/02/26 00:08:05;;;;;;;3.23;1.70;;;;;;;18.46;49.76;96448.16;5019137;28;20269;-91
2023/02/26 00:10:32;;;;;;;1.80;1.70;;;;;;;18.37;49.59;96425.03;4989287;28;20178;-93
2023/02/26 00:12:59;;;;;;;3.60;1.90;;;;;;;18.86;49.74;96528.88;4986914;28;20183;-91
2023/02/26 00:15:37;;;;;;;4.63;1.80;;;;;;;19.51;49.63;96645.94;4985115;28;20216;-91
2023/02/26 00:18:19;;;;;;;2.03;1.67;;;;;;;18.45;49.85;96464.25;4989807;28;20269;-91
2023/02/26 00:21:06;;;;;;;2.00;1.80;;;;;;;19.62;49.63;96657.22;4994374;28;20178;-91
2023/02/26 00:23:45;;;;;;;3.33;1.67;;;;;;;18.22;49.77;96439.91;5005095;28;20186;-91
2023/02/26 00:26:16;;;;;;;2.40;1.80;;;;;;;18.72;49.73;96504.75;4991965;28;20225;-92
2023/02/26 00:28:47;;;;;;;2.00;1.60;;;;;;;19.50;49.74;96651.81;4987714;28;20207;-92
2023/02/26 00:31:17;;;;;;;1.27;1.20;;;;;;;18.17;49.56;96409.28;4979225;28;20209;-91
2023/02/26 00:34:02;;;;;;;3.53;1.60;;;;;;;17.77;49.63;96344.69;5001269;28;20189;-91
2023/02/26 00:37:06;;;;;;;1.70;1.40;;;;;;;16.93;49.78;96207.91;4995269;28;20214;-92
2023/02/26 00:40:05;;;;;;;3.73;1.60;;;;;;;20.09;49.91;96742.41;5002965;28;20182;-92
2023/02/26 00:42:32;;;;;;;1.53;1.43;;;;;;;17.54;49.54;96333.09;5014773;28;20212;-92
2023/02/26 00:44:59;;;;;;;2.53;1.47;;;;;;;18.65;49.67;96513.09;5002929;28;20187;-92
2023/02/26 00:47:47;;;;;;;1.97;1.70;;;;;;;19.47;49.87;96665.38;4985485;28;20250;-91
2023/02/26 00:50:30;;;;;;;1.87;1.67;;;;;;;16.94;49.80;96234.97;5010706;28;20657;-91
2023/02/26 00:53:15;;;;;;;1.40;1.30;;;;;;;19.60;49.70;96674.16;4990376;28;20246;-91
2023/02/26 00:55:42;;;;;;;1.53;1.40;;;;;;;17.51;49.72;96335.53;5037500;28;20210;-92
2023/02/26 00:58:08;;;;;;;1.87;1.37;;;;;;;18.38;49.73;96494.59;5004415;28;20229;-91
2023/02/26 01:00:38;;;;;;;2.20;1.70;;;;;;;19.14;49.70;96615.25;4989666;28;20205;-93
2023/02/26 01:03:11;;;;;;;1.70;1.60;;;;;;;19.28;49.86;96626.69;4986684;28;20199;-93
2023/02/26 01:05:41;;;;;;;2.50;1.60;;;;;;;17.86;49.87;96383.88;4982411;28;20214;-92
2023/02/26 01:08:29;;;;;;;1.60;1.30;;;;;;;20.07;49.88;96761.97;4993425;28;20186;-92
2023/02/26 01:10:56;;;;;;;1.43;1.30;;;;;;;17.09;49.85;96243.88;5020091;28;20250;-91
2023/02/26 01:13:26;;;;;;;1.63;1.47;;;;;;;17.89;49.56;96383.13;4988722;28;20189;-93
2023/02/26 01:16:01;;;;;;;1.73;1.50;;;;;;;18.21;49.82;96461.06;5003355;28;20248;-92
2023/02/26 01:18:32;;;;;;;1.50;1.40;;;;;;;18.36;49.54;96486.03;5004396;28;20178;-92
2023/02/26 01:21:02;;;;;;;1.77;1.67;;;;;;;17.69;49.89;96385.16;4996586;28;20179;-92
2023/02/26 01:23:35;;;;;;;1.70;1.60;;;;;;;17.22;49.94;96308.47;5009205;28;20210;-92
2023/02/26 01:26:23;;;;;;;1.80;1.70;;;;;;;17.50;49.74;96321.13;4980968;28;20205;-92
2023/02/26 01:28:54;;;;;;;1.60;1.50;;;;;;;18.36;49.57;96473.28;4987641;28;20225;-92
2023/02/26 01:32:02;;;;;;;1.93;1.50;;;;;;;20.06;49.91;96755.09;4988502;28;20211;-92
2023/02/26 01:34:38;;;;;;;1.60;1.50;;;;;;;18.39;49.96;96499.72;5001016;28;20221;-92
2023/02/26 01:37:25;;;;;;;1.60;1.40;;;;;;;18.12;49.73;96437.97;5001470;28;20220;-92
2023/02/26 01:40:27;;;;;;;1.60;1.50;;;;;;;18.36;49.85;96464.00;4998804;28;20179;-92
2023/02/26 01:42:57;;;;;;;1.50;1.40;;;;;;;18.60;49.81;96517.19;5006751;28;20192;-92
2023/02/26 01:46:04;;;;;;;1.53;1.43;;;;;;;18.17;49.60;96469.41;4972674;28;20215;-92
2023/02/26 01:48:54;;;;;;;1.47;1.37;;;;;;;20.06;49.52;96766.19;4965993;28;20200;-93
2023/02/26 01:52:05;;;;;;;1.43;1.23;;;;;;;17.87;49.64;96394.94;5017846;28;20178;-93
2023/02/26 01:54:37;;;;;;;2.33;1.67;;;;;;;17.15;49.42;96258.38;4969469;28;20190;-92
2023/02/26 01:57:13;;;;;;;1.30;1.20;;;;;;;18.59;49.72;96523.94;5004061;28;20229;-92
2023/02/26 01:59:43;;;;;;;1.50;1.40;;;;;;;19.27;49.47;96653.00;5003455;28;20205;-92
2023/02/26 02:02:15;;;;;;;2.40;1.47;;;;;;;17.75;49.62;96376.81;4989321;28;20190;-93
2023/02/26 02:04:48;;;;;;;2.10;1.53;;;;;;;18.31;49.46;96497.75;4986166;28;20283;-92
2023/02/26 02:07:19;;;;;;;2.23;1.47;;;;;;;19.41;49.44;96672.00;4986660;28;20211;-93
2023/02/26 02:09:47;;;;;;;1.70;1.40;;;;;;;19.09;49.22;96629.56;4987916;28;20179;-91
2023/02/26 02:12:43;;;;;;;1.77;1.40;;;;;;;19.49;49.48;96675.59;4987835;28;20182;-91
2023/02/26 02:15:35;;;;;;;1.63;1.40;;;;;;;20.05;49.50;96777.22;5019637;28;20178;-93
2023/02/26 02:18:34;;;;;;;1.50;1.40;;;;;;;18.34;49.50;96498.69;4992697;28;20187;-91
2023/02/26 02:21:26;;;;;;;1.30;1.20;;;;;;;20.04;49.66;96779.75;5016321;28;20179;-91
2023/02/26 02:24:08;;;;;;;1.30;1.20;;;;;;;20.05;49.72;96781.44;5015839;28;20203;-92
2023/02/26 02:26:58;;;;;;;2.13;1.50;;;;;;;19.51;49.46;96702.81;5017173;28;20208;-93
2023/02/26 02:30:10;;;;;;;1.60;1.40;;;;;;;18.29;49.42;96519.75;4994921;28;20194;-92
2023/02/26 02:33:05;;;;;;;1.60;1.50;;;;;;;17.61;49.54;96401.88;4995064;28;20183;-93
2023/02/26 02:36:04;;;;;;;1.73;1.40;;;;;;;19.03;49.54;96648.09;5007206;28;20231;-94
2023/02/26 02:38:47;;;;;;;1.43;1.33;;;;;;;18.23;49.50;96491.63;5012343;28;20183;-92
2023/02/26 02:42:03;;;;;;;1.30;1.20;;;;;;;18.89;49.53;96623.13;4990301;28;20205;-92
2023/02/26 02:44:34;;;;;;;1.93;1.40;;;;;;;18.37;49.65;96536.06;4999739;28;20175;-92
2023/02/26 02:47:17;;;;;;;1.30;1.20;;;;;;;17.96;49.65;96453.63;4985959;28;20209;-92
2023/02/26 02:50:17;;;;;;;1.30;1.20;;;;;;;20.02;49.65;96796.69;4982828;28;20255;-91
2023/02/26 02:53:06;;;;;;;1.47;1.37;;;;;;;17.97;49.58;96465.53;5005354;28;20288;-92
2023/02/26 02:55:44;;;;;;;1.10;1.10;;;;;;;18.35;49.43;96546.19;5008454;28;20226;-92
2023/02/26 02:58:22;;;;;;;1.40;1.30;;;;;;;17.40;49.44;96387.69;5023542;28;20212;-92
2023/02/26 03:00:54;;;;;;;1.23;1.03;;;;;;;18.35;49.55;96558.06;4991426;28;20187;-93
2023/02/26 03:03:41;;;;;;;1.10;1.10;;;;;;;20.00;49.50;96811.94;5007198;28;20206;-93
2023/02/26 03:06:12;;;;;;;1.20;1.10;;;;;;;18.62;49.54;96587.63;5022396;28;20206;-91
2023/02/26 03:08:40;;;;;;;3.90;1.40;;;;;;;17.64;49.53;96424.81;4988246;28;20210;-92
2023/02/26 03:11:07;;;;;;;1.30;1.20;;;;;;;18.60;49.13;96593.53;4985715;28;20178;-91
2023/02/26 03:13:36;;;;;;;1.67;1.30;;;;;;;19.20;49.43;96679.06;5006909;28;20182;-93
2023/02/26 03:16:42;;;;;;;1.27;1.17;;;;;;;20.01;49.37;96813.66;4990510;28;20245;-90
2023/02/26 03:19:20;;;;;;;1.00;1.00;;;;;;;17.47;49.37;96395.56;5022701;28;20192;-92
2023/02/26 03:22:19;;;;;;;1.17;1.07;;;;;;;19.43;49.50;96724.72;4979004;28;20191;-90
2023/02/26 03:25:13;;;;;;;1.57;1.40;;;;;;;20.03;49.42;96834.97;5035108;28;20205;-93
2023/02/26 03:27:51;;;;;;;1.17;1.10;;;;;;;18.81;49.39;96630.56;5016518;28;20186;-92
2023/02/26 03:30:49;;;;;;;1.40;1.30;;;;;;;19.23;49.09;96689.34;5005191;28;20193;-92
2023/02/26 03:33:59;;;;;;;1.57;1.40;;;;;;;20.06;49.13;96839.28;5008357;28;20186;-93
2023/02/26 03:36:38;;;;;;;1.43;1.30;;;;;;;17.92;49.28;96465.38;5006781;28;20218;-92
2023/02/26 03:39:42;;;;;;;1.40;1.30;;;;;;;17.61;49.47;96452.66;4990302;28;20194;-92
2023/02/26 03:42:40;;;;;;;1.37;1.27;;;;;;;20.04;49.38;96853.69;4993454;28;20186;-91
2023/02/26 03:45:22;;;;;;;1.30;1.20;;;;;;;19.42;49.17;96778.19;4993692;28;20185;-92
2023/02/26 03:47:52;;;;;;;1.30;1.20;;;;;;;18.33;49.60;96585.13;4990929;28;20178;-91
2023/02/26 03:50:29;;;;;;;1.30;1.20;;;;;;;18.26;49.21;96573.06;4985363;28;20221;-92
2023/02/26 03:52:56;;;;;;;1.30;1.20;;;;;;;17.88;49.28;96516.94;4987116;28;20276;-91
2023/02/26 03:55:28;;;;;;;1.40;1.30;;;;;;;18.56;49.37;96625.66;5004592;28;20234;-92
2023/02/26 03:57:55;;;;;;;1.10;1.10;;;;;;;19.14;49.27;96745.16;4990428;28;20205;-91
2023/02/26 04:00:25;;;;;;;1.00;1.00;;;;;;;19.94;49.19;96855.16;5003927;28;20223;-92
2023/02/26 04:03:08;;;;;;;1.20;1.10;;;;;;;18.46;49.17;96635.53;5000862;28;20199;-92
2023/02/26 04:05:39;;;;;;;1.27;1.20;;;;;;;18.33;48.89;96582.59;5006207;28;20208;-92
2023/02/26 04:08:09;;;;;;;1.17;1.17;;;;;;;19.39;49.14;96783.22;5009016;28;20206;-91
2023/02/26 04:11:01;;;;;;;1.47;1.37;;;;;;;18.31;49.10;96607.97;5005595;28;20182;-92
2023/02/26 04:13:28;;;;;;;1.80;1.47;;;;;;;18.15;49.21;96568.53;4997288;28;20189;-92
2023/02/26 04:16:02;;;;;;;1.50;1.40;;;;;;;17.37;49.22;96453.63;4988724;28;20230;-92
2023/02/26 04:18:45;;;;;;;1.30;1.20;;;;;;;18.06;49.26;96564.91;5018041;28;20422;-92
2023/02/26 04:21:20;;;;;;;1.40;1.30;;;;;;;17.68;49.21;96500.28;5005790;28;21071;-92
2023/02/26 04:23:50;;;;;;;1.23;1.13;;;;;;;18.20;49.29;96592.44;4986692;28;20245;-92
2023/02/26 04:26:24;;;;;;;1.33;1.23;;;;;;;17.27;49.02;96427.13;4976348;28;20226;-92
2023/02/26 04:28:52;;;;;;;1.63;1.27;;;;;;;18.61;48.96;96658.84;5003350;28;20212;-93
2023/02/26 04:31:29;;;;;;;1.30;1.20;;;;;;;18.35;49.21;96607.22;5006984;28;20277;-90
2023/02/26 04:34:02;;;;;;;1.00;1.00;;;;;;;18.27;49.41;96605.31;4989885;28;20183;-93
2023/02/26 04:36:32;;;;;;;1.40;1.30;;;;;;;18.36;49.13;96646.25;4989143;28;20226;-92
2023/02/26 04:38:59;;;;;;;1.23;1.13;;;;;;;17.53;48.92;96487.16;4987453;28;20195;-91
2023/02/26 04:41:29;;;;;;;1.47;1.37;;;;;;;19.07;49.19;96772.13;4986046;28;20179;-91
2023/02/26 04:44:02;;;;;;;1.33;1.10;;;;;;;19.30;49.49;96809.28;4996863;28;20187;-93
2023/02/26 04:46:29;;;;;;;1.20;1.10;;;;;;;18.13;49.03;96628.69;4988924;28;20202;-92
2023/02/26 04:49:03;;;;;;;1.43;1.20;;;;;;;17.43;49.02;96472.47;4988579;28;20194;-93
2023/02/26 04:51:30;;;;;;;1.20;1.00;;;;;;;17.98;48.96;96577.41;5005619;28;20209;-93
2023/02/26 04:54:07;;;;;;;1.40;1.30;;;;;;;19.39;48.86;96845.22;5021008;28;20242;-92
2023/02/26 04:56:36;;;;;;;1.30;1.20;;;;;;;18.49;49.01;96679.72;5004392;28;20216;-93
2023/02/26 04:59:03;;;;;;;1.23;1.13;;;;;;;17.64;48.96;96523.03;5004693;28;20179;-92
2023/02/26 05:01:36;;;;;;;1.10;1.10;;;;;;;18.37;48.86;96658.13;4988881;28;20286;-92
2023/02/26 05:04:06;;;;;;;1.20;1.10;;;;;;;18.98;48.95;96760.84;4988723;28;20182;-92
2023/02/26 05:06:36;;;;;;;1.50;1.40;;;;;;;19.53;48.89;96871.94;5011423;28;20206;-92
2023/02/26 05:09:08;;;;;;;1.03;1.03;;;;;;;19.40;48.95;96833.34;4991182;28;20226;-92
2023/02/26 05:11:35;;;;;;;1.50;1.27;;;;;;;19.14;48.57;96816.44;5004635;28;20206;-93
2023/02/26 05:14:03;;;;;;;1.37;1.27;;;;;;;17.71;48.78;96560.50;4988524;28;20205;-92
2023/02/26 05:16:40;;;;;;;1.40;1.30;;;;;;;17.71;48.85;96555.44;4987781;28;20262;-93
2023/02/26 05:19:07;;;;;;;1.30;1.20;;;;;;;18.09;48.49;96618.38;4984343;28;20191;-92
2023/02/26 05:21:44;;;;;;;1.37;1.27;;;;;;;18.34;48.70;96666.56;4996811;28;20182;-92
2023/02/26 05:24:14;;;;;;;1.07;1.00;;;;;;;17.87;48.47;96594.03;5004849;28;20200;-90
2023/02/26 05:26:41;;;;;;;1.30;1.20;;;;;;;19.40;48.73;96871.56;4988536;28;20221;-92
2023/02/26 05:29:13;;;;;;;1.20;1.10;;;;;;;18.10;48.86;96643.84;4997898;28;20198;-90
2023/02/26 05:31:42;;;;;;;1.30;1.20;;;;;;;19.25;48.47;96853.28;4996922;28;20190;-92
2023/02/26 05:34:12;;;;;;;1.33;1.23;;;;;;;17.97;48.87;96616.34;5003902;28;20186;-91
2023/02/26 05:36:39;;;;;;;1.23;1.10;;;;;;;17.40;48.75;96553.63;4977315;28;20249;-91
2023/02/26 05:39:08;;;;;;;1.37;1.27;;;;;;;17.61;48.58;96551.75;4988047;28;20190;-93
2023/02/26 05:41:45;;;;;;;1.40;1.30;;;;;;;18.27;48.86;96687.56;4987109;28;20217;-93
2023/02/26 05:44:15;;;;;;;1.10;1.10;;;;;;;18.21;48.72;96669.59;4990148;28;20206;-92
2023/02/26 05:46:45;;;;;;;1.23;1.10;;;;;;;19.91;48.91;96951.97;5004891;28;20202;-92
2023/02/26 05:49:12;;;;;;;1.20;1.10;;;;;;;17.43;48.59;96569.00;5000588;28;20266;-92
2023/02/26 05:51:50;;;;;;;1.43;1.33;;;;;;;18.27;48.69;96695.19;4987334;28;20194;-90
2023/02/26 05:54:22;;;;;;;1.10;1.07;;;;;;;17.69;48.56;96579.91;4987576;28;20296;-91
2023/02/26 05:57:04;;;;;;;1.20;1.10;;;;;;;17.68;48.57;96578.19;4984286;28;20211;-90
2023/02/26 05:59:30;;;;;;;1.43;1.33;;;;;;;17.46;48.43;96570.75;4988609;28;20197;-92
2023/02/26 06:02:02;;;;;;;2.40;1.23;;;;;;;18.88;48.54;96810.63;4982841;28;20174;-92
2023/02/26 06:04:34;;;;;;;1.13;1.03;;;;;;;19.41;48.75;96884.34;4987386;28;20212;-92
2023/02/26 06:07:12;;;;;;;1.03;1.00;;;;;;;18.36;48.87;96717.47;5001907;28;20233;-93
2023/02/26 06:10:03;;;;;;;1.30;1.10;;;;;;;19.83;48.74;96992.56;4992764;28;20257;-92
2023/02/26 06:13:03;;;;;;;1.20;1.10;;;;;;;18.33;48.81;96728.44;4992218;28;20189;-91
2023/02/26 06:15:59;;;;;;;1.37;1.27;;;;;;;19.98;48.68;96989.56;5007601;28;20202;-92
2023/02/26 06:18:32;;;;;;;1.50;1.40;;;;;;;18.31;48.77;96716.47;4997805;28;20258;-93
2023/02/26 06:21:00;;;;;;;0.83;0.83;;;;;;;18.97;48.88;96849.09;4984061;28;20187;-93
2023/02/26 06:23:51;;;;;;;1.63;1.27;;;;;;;18.72;48.52;96800.84;4983243;28;20186;-92
2023/02/26 06:26:29;;;;;;;1.47;1.37;;;;;;;17.27;48.75;96543.94;4990493;28;20210;-92
2023/02/26 06:29:19;;;;;;;1.50;1.40;;;;;;;19.85;48.71;97011.34;5009111;28;20218;-90
2023/02/26 06:31:55;;;;;;;1.80;1.17;;;;;;;16.76;48.69;96486.50;4987830;28;20191;-90
2023/02/26 06:34:39;;;;;;;1.50;1.40;;;;;;;17.62;48.38;96624.59;5006022;28;20210;-92
2023/02/26 06:37:14;;;;;;;1.23;1.20;;;;;;;17.50;48.48;96598.81;4995007;28;20222;-92
2023/02/26 06:40:06;;;;;;;2.07;1.30;;;;;;;17.22;48.43;96572.50;4970174;28;20206;-91
2023/02/26 06:42:49;;;;;;;1.30;1.17;;;;;;;18.22;48.48;96745.03;5010136;28;20206;-92
2023/02/26 06:45:27;;;;;;;1.27;1.17;;;;;;;19.40;48.51;96950.56;5005145;28;20271;-90
2023/02/26 06:48:00;;;;;;;1.03;1.00;;;;;;;18.32;48.51;96769.91;4991558;28;20182;-92
2023/02/26 06:50:27;;;;;;;0.97;0.97;;;;;;;19.56;48.35;96984.16;4988221;28;20183;-92
2023/02/26 06:52:53;;;;;;;1.40;1.30;;;;;;;19.09;48.31;96910.56;4990844;28;20257;-91
2023/02/26 06:55:26;;;;;;;1.47;1.20;;;;;;;18.89;48.31;96872.63;4994434;28;20207;-90
2023/02/26 06:57:53;;;;;;;1.20;1.10;;;;;;;18.59;48.59;96824.19;5012676;28;20215;-91
2023/02/26 07:00:20;;;;;;;1.20;1.10;;;;;;;18.93;48.66;96894.78;5002362;28;20185;-91
2023/02/26 07:02:49;;;;;;;1.30;1.20;;;;;;;18.99;48.67;96907.69;5006398;28;20178;-92
2023/02/26 07:05:16;;;;;;;1.40;1.30;;;;;;;18.67;48.64;96855.84;5003252;28;20254;-91
2023/02/26 07:07:43;;;;;;;1.07;1.00;;;;;;;17.38;48.73;96628.06;4995569;28;20246;-92
2023/02/26 07:10:10;;;;;;;1.27;1.17;;;;;;;18.73;48.53;96876.38;4996617;28;20222;-91
2023/02/26 07:12:37;;;;;;;1.37;1.27;;;;;;;18.93;48.55;96894.78;5005664;28;20183;-92
2023/02/26 07:15:05;;;;;;;1.27;1.17;;;;;;;18.46;48.76;96814.50;5006244;28;20254;-92
2023/02/26 07:17:31;;;;;;;1.33;1.23;;;;;;;19.48;48.67;96998.34;5001928;28;20274;-93
2023/02/26 07:19:59;;;;;;;1.30;1.20;;;;;;;17.52;48.63;96681.03;4990767;28;20219;-91
2023/02/26 07:22:26;;;;;;;1.40;1.30;;;;;;;19.04;48.58;96922.28;5009266;28;20198;-92
2023/02/26 07:24:52;;;;;;;1.73;1.20;;;;;;;18.13;47.80;96804.13;4990648;28;20183;-91
2023/02/26 07:27:19;;;;;;;1.10;1.10;;;;;;;19.07;48.49;96947.84;5000713;28;20225;-92
2023/02/26 07:29:46;;;;;;;1.30;1.20;;;;;;;18.27;48.24;96822.34;4992129;28;20222;-91
2023/02/26 07:32:13;;;;;;;1.20;1.10;;;;;;;18.14;48.51;96790.59;5011641;28;20218;-92
2023/02/26 07:34:41;;;;;;;1.10;1.10;;;;;;;19.45;48.20;97028.00;4992156;28;20186;-92
2023/02/26 07:37:08;;;;;;;1.40;1.30;;;;;;;18.95;48.24;96936.44;5009871;28;20274;-91
2023/02/26 07:39:35;;;;;;;1.03;1.03;;;;;;;18.00;48.41;96789.28;4989695;28;20178;-92
2023/02/26 07:42:02;;;;;;;1.43;1.33;;;;;;;18.65;47.77;96876.97;5008647;28;20182;-91
2023/02/26 07:44:28;;;;;;;2.40;2.00;;;;;;;18.75;47.96;96895.13;5037345;28;20194;-91
2023/02/26 07:46:55;;;;;;;3.90;2.10;;;;;;;19.38;46.26;97032.03;5003927;28;20194;-91
2023/02/26 07:49:22;;;;;;;4.23;2.10;;;;;;;18.29;44.20;96820.69;5005262;28;20186;-91
2023/02/26 07:51:48;;;;;;;3.37;1.90;;;;;;;18.87;42.83;96920.06;5021322;28;20187;-88
2023/02/26 07:54:15;;;;;;;2.87;2.03;;;;;;;19.06;42.35;96955.44;5002871;28;20187;-89
2023/02/26 07:56:42;;;;;;;2.50;1.97;;;;;;;17.88;41.71;96754.97;5018173;28;20294;-92
2023/02/26 07:59:10;;;;;;;3.83;1.87;;;;;;;18.27;41.22;96830.81;5000716;28;20257;-90
2023/02/26 08:01:36;;;;;;;2.60;1.70;;;;;;;18.77;40.26;96921.47;4989457;28;20190;-90
2023/02/26 08:04:03;;;;;;;2.00;1.53;;;;;;;18.14;40.16;96822.78;4984358;28;20174;-91
2023/02/26 08:06:30;;;;;;;3.40;1.83;;;;;;;19.46;39.37;97055.19;5005076;28;20202;-93
2023/02/26 08:08:57;;;;;;;2.70;1.90;;;;;;;18.29;38.62;96845.28;4986556;28;20241;-90
2023/02/26 08:11:24;;;;;;;3.07;1.80;;;;;;;19.43;38.09;97038.16;4996847;28;20183;-89
2023/02/26 08:13:50;;;;;;;2.20;1.80;;;;;;;18.95;39.24;96951.72;5008032;28;20193;-91
2023/02/26 08:16:17;;;;;;;1.90;1.60;;;;;;;17.74;41.34;96768.97;5038145;28;20233;-91
2023/02/26 08:18:44;;;;;;;3.30;1.70;;;;;;;18.20;41.83;96828.03;5006457;28;20229;-92
2023/02/26 08:21:10;;;;;;;2.33;1.80;;;;;;;18.97;42.51;96991.69;5026948;28;20237;-93
2023/02/26 08:23:38;;;;;;;1.77;1.60;;;;;;;18.05;42.78;96837.72;4996019;28;20182;-92
2023/02/26 08:26:06;;;;;;;1.50;1.40;;;;;;;18.95;43.02;96989.91;5005593;28;20229;-92
2023/02/26 08:28:33;;;;;;;1.70;1.60;;;;;;;18.49;43.37;96915.47;4988471;28;20198;-93
2023/02/26 08:31:00;;;;;;;3.50;1.47;;;;;;;18.91;43.43;96981.31;5021421;28;20225;-93
2023/02/26 08:33:26;;;;;;;2.13;1.60;;;;;;;18.86;43.55;96987.09;5027251;28;20194;-93
2023/02/26 08:35:54;;;;;;;2.00;1.40;;;;;;;18.93;43.51;96999.16;4988728;28;20230;-93
2023/02/26 08:38:21;;;;;;;2.60;1.40;;;;;;;19.04;43.68;97030.94;4988123;28;20234;-93
2023/02/26 08:40:51;;;;;;;1.27;1.20;;;;;;;17.72;43.81;96794.31;5001643;28;20187;-93
2023/02/26 08:43:22;;;;;;;1.67;1.53;;;;;;;19.20;44.18;97081.53;5025957;28;20191;-93
2023/02/26 08:45:53;;;;;;;1.67;1.57;;;;;;;18.57;43.96;96942.91;4995145;28;20203;-90
2023/02/26 08:48:20;;;;;;;2.00;1.60;;;;;;;18.23;44.07;96876.47;4983958;28;20198;-93
2023/02/26 08:50:48;;;;;;;1.83;1.30;;;;;;;18.23;44.11;96879.88;4997054;28;20193;-92
2023/02/26 08:53:15;;;;;;;2.00;1.43;;;;;;;19.91;44.62;97172.16;4984981;28;20218;-93
2023/02/26 08:55:43;;;;;;;1.47;1.30;;;;;;;18.42;44.56;96926.28;4988293;28;20199;-92
2023/02/26 08:58:10;;;;;;;1.57;1.40;;;;;;;18.05;44.54;96870.78;4989407;28;20226;-92
2023/02/26 09:00:37;;;;;;;1.43;1.33;;;;;;;17.90;44.48;96855.91;4995151;28;20187;-93
2023/02/26 09:03:04;;;;;;;1.50;1.40;;;;;;;18.23;44.16;96918.84;5005013;28;20178;-92
2023/02/26 09:05:31;;;;;;;3.30;1.50;;;;;;;18.13;43.89;96889.72;5004545;28;20251;-92
2023/02/26 09:07:57;;;;;;;3.33;1.97;;;;;;;18.15;43.69;96888.09;4987200;28;20195;-91
2023/02/26 09:10:24;;;;;;;4.10;1.80;;;;;;;19.40;42.87;97127.25;4988643;28;20194;-93
2023/02/26 09:12:51;;;;;;;2.00;1.90;;;;;;;19.06;42.92;97057.28;5015538;23;20229;-92
2023/02/26 09:15:18;;;;;;;2.87;1.90;;;;;;;17.80;43.32;96840.31;5015361;28;20223;-93
2023/02/26 09:17:48;;;;;;;2.53;1.83;;;;;;;19.95;43.35;97211.38;5001607;28;20214;-91
2023/02/26 09:20:14;;;;;;;2.27;1.77;;;;;;;18.85;43.39;97046.44;5013981;28;20259;-93
2023/02/26 09:22:44;;;;;;;2.43;1.70;;;;;;;18.07;43.50;96931.06;5019467;28;20265;-93
2023/02/26 09:25:11;;;;;;;1.90;1.70;;;;;;;18.68;43.85;97022.97;5000940;28;20215;-92
2023/02/26 09:27:37;;;;;;;1.93;1.70;;;;;;;18.23;43.70;96952.75;4986008;28;20187;-93
2023/02/26 09:30:05;;;;;;;2.13;1.63;;;;;;;19.46;43.72;97159.69;4987114;28;20218;-94
2023/02/26 09:32:31;;;;;;;3.03;1.90;;;;;;;17.19;43.95;96778.06;5003867;28;20183;-92
2023/02/26 09:35:01;;;;;;;1.87;1.60;;;;;;;17.61;43.74;96836.28;4980736;28;20195;-93
2023/02/26 09:37:28;;;;;;;1.97;1.70;;;;;;;18.26;43.99;96969.81;4988080;28;20214;-92
2023/02/26 09:39:55;;;;;;;2.00;1.70;;;;;;;18.27;43.76;96962.22;5000740;28;20226;-92
2023/02/26 09:42:49;;;;;;;1.50;1.40;;;;;;;18.61;44.23;97015.09;4977873;28;20191;-93
2023/02/26 09:45:25;;;;;;;1.60;1.40;;;;;;;17.80;44.10;96878.44;5076539;23;20248;-93
2023/02/26 09:47:53;;;;;;;2.33;1.50;;;;;;;16.97;44.13;96748.56;5028222;23;20201;-93
2023/02/26 09:50:42;;;;;;;2.97;1.70;;;;;;;19.97;44.35;97245.44;5012760;28;20205;-93
2023/02/26 09:53:11;;;;;;;1.50;1.40;;;;;;;18.32;44.31;96995.47;5039174;28;20194;-92
2023/02/26 09:55:44;;;;;;;1.90;1.70;;;;;;;17.54;44.16;96852.16;5039874;28;20272;-93
2023/02/26 09:58:25;;;;;;;1.63;1.53;;;;;;;19.96;44.62;97253.91;5039741;28;20213;-94
2023/02/26 10:15:25;;;;;;;1.60;1.50;;;;;;;17.93;44.42;96939.91;3155728;26;20191;-94
2023/02/26 10:18:13;;;;;;;2.43;1.43;;;;;;;18.25;44.20;96979.13;4970797;28;20186;-93
2023/02/26 10:20:49;;;;;;;1.60;1.50;;;;;;;19.98;44.73;97273.53;4996466;28;20183;-93
2023/02/26 10:31:42;;;;;;;1.87;1.50;;;;;;;18.35;45.74;97000.66;3219915;26;20199;-92
2023/02/26 10:34:34;;;;;;;1.40;1.30;;;;;;;20.04;45.71;97279.66;5003513;28;20186;-90
2023/02/26 10:37:32;;;;;;;1.90;1.30;;;;;;;20.05;45.57;97282.25;5000205;28;20279;-91
2023/02/26 10:40:17;;;;;;;1.30;1.20;;;;;;;19.36;45.54;97162.78;5002197;28;20184;-88
2023/02/26 10:42:52;;;;;;;3.03;1.33;;;;;;;19.55;45.71;97193.97;5007622;28;20215;-91
2023/02/26 10:45:47;;;;;;;1.87;1.30;;;;;;;20.07;45.59;97284.88;4984306;28;20257;-90
2023/02/26 10:48:27;;;;;;;1.47;1.20;;;;;;;20.08;45.64;97284.91;5010034;28;20210;-91
2023/02/26 10:50:58;;;;;;;1.50;1.40;;;;;;;18.72;45.52;97074.88;5016264;28;20500;-92
2023/02/26 10:53:26;;;;;;;1.40;1.30;;;;;;;19.26;45.73;97165.78;4971774;28;20202;-93
2023/02/26 10:56:02;;;;;;;1.53;1.30;;;;;;;19.59;45.66;97228.94;4984106;28;20279;-92
2023/02/26 10:58:28;;;;;;;1.63;1.40;;;;;;;18.40;45.70;96994.91;4987995;28;20245;-93
2023/02/26 11:00:58;;;;;;;1.57;1.33;;;;;;;18.18;45.45;96960.22;4991969;28;20184;-93
2023/02/26 11:03:40;;;;;;;1.43;1.33;;;;;;;18.17;45.29;96971.22;5007681;28;20195;-93
2023/02/26 11:06:06;;;;;;;2.87;1.40;;;;;;;18.49;45.61;97007.94;4995062;28;20198;-93
2023/02/26 11:08:45;;;;;;;1.67;1.33;;;;;;;17.76;45.55;96896.91;4984087;28;20198;-92
2023/02/26 11:11:34;;;;;;;1.60;1.50;;;;;;;20.16;45.49;97280.91;4991180;28;20258;-94
2023/02/26 11:14:01;;;;;;;1.67;1.30;;;;;;;19.63;45.46;97186.56;5004514;28;20199;-92
2023/02/26 11:16:27;;;;;;;1.60;1.47;;;;;;;19.26;45.73;97120.81;4983075;28;20205;-94
2023/02/26 11:19:41;;;;;;;1.33;1.23;;;;;;;20.16;45.68;97277.53;5014172;28;20222;-91
2023/02/26 11:35:31;;;;;;;1.20;1.20;;;;;;;18.08;45.51;96911.56;4368162;26;20257;-93
2023/02/26 11:38:17;;;;;;;3.53;1.60;;;;;;;19.63;45.35;97181.47;5021257;28;20202;-93
2023/02/26 11:40:48;;;;;;;3.70;1.57;;;;;;;19.47;43.83;97158.84;5014208;28;20210;-93
2023/02/26 11:43:19;;;;;;;1.50;1.40;;;;;;;19.53;41.32;97190.50;5025841;28;20273;-92
2023/02/26 11:45:48;;;;;;;1.93;1.30;;;;;;;18.36;41.62;96964.22;5004099;28;20270;-92
2023/02/26 11:48:22;;;;;;;3.63;1.30;;;;;;;18.71;41.98;97017.16;5032348;28;20195;-92
2023/02/26 11:50:52;;;;;;;1.47;1.30;;;;;;;19.12;42.66;97100.78;5003032;28;20197;-93
2023/02/26 11:53:33;;;;;;;1.67;1.57;;;;;;;20.04;43.14;97249.06;5028330;28;20232;-89
2023/02/26 11:56:11;;;;;;;2.17;1.50;;;;;;;20.14;43.45;97257.06;5034502;28;20225;-89
2023/02/26 11:58:39;;;;;;;3.73;1.80;;;;;;;19.32;43.57;97118.47;5005298;28;20266;-88
2023/02/26 12:01:07;;;;;;;5.03;1.60;;;;;;;19.79;44.00;97199.84;5018339;28;20212;-89
2023/02/26 12:03:38;;;;;;;13.53;2.47;;;;;;;19.44;43.91;97144.34;5034688;28;20229;-90
2023/02/26 12:06:05;;;;;;;3.53;1.30;;;;;;;19.32;44.15;97121.03;5019045;28;20288;-89
2023/02/26 12:08:39;;;;;;;1.00;1.00;;;;;;;19.35;43.98;97130.44;5020732;28;20257;-92
2023/02/26 12:11:22;;;;;;;1.60;1.20;;;;;;;20.10;44.02;97251.78;5021951;28;20206;-90
2023/02/26 12:13:54;;;;;;;1.50;1.30;;;;;;;20.08;44.03;97251.75;5053634;28;20261;-90
2023/02/26 12:16:30;;;;;;;2.07;1.40;;;;;;;18.73;44.30;97030.75;5057359;28;20229;-93
2023/02/26 12:19:01;;;;;;;3.03;1.53;;;;;;;20.08;44.29;97264.50;5024308;28;20221;-90
2023/02/26 12:21:42;;;;;;;2.33;1.57;;;;;;;20.09;44.43;97273.88;5038718;28;20225;-91
2023/02/26 12:24:18;;;;;;;3.03;1.20;;;;;;;19.10;44.57;97117.72;5051853;28;20198;-92
2023/02/26 12:26:44;;;;;;;1.30;1.20;;;;;;;20.08;44.52;97272.16;5040684;28;20209;-90
2023/02/26 12:29:11;;;;;;;1.30;1.20;;;;;;;20.07;44.48;97277.22;5055070;28;20188;-93
2023/02/26 12:31:57;;;;;;;1.30;1.20;;;;;;;19.44;44.36;97182.56;5039840;28;20212;-89
2023/02/26 12:34:32;;;;;;;1.20;1.10;;;;;;;20.08;44.36;97272.16;5039789;28;20195;-92
2023/02/26 12:37:37;;;;;;;1.30;1.20;;;;;;;20.09;44.26;97280.66;5039375;28;20221;-92
2023/02/26 12:40:29;;;;;;;1.00;1.00;;;;;;;20.09;44.13;97296.84;5046747;28;20290;-92
2023/02/26 12:43:24;;;;;;;1.40;1.30;;;;;;;20.09;44.13;97280.66;5037266;28;20222;-90
2023/02/26 12:46:15;;;;;;;2.10;1.40;;;;;;;20.11;44.06;97285.00;5047650;28;20205;-89
2023/02/26 12:49:01;;;;;;;3.43;1.30;;;;;;;20.11;44.14;97289.22;5049118;28;20196;-91